createdAt,value
2017-02-10T00:00:15.977Z,96.99
2017-02-10T00:00:43.937Z,96.8
2017-02-10T00:01:12.112Z,96.89
2017-02-10T00:01:40.215Z,96.99
2017-02-10T00:02:08.420Z,97.28
2017-02-10T00:02:36.650Z,97.57
2017-02-10T00:03:04.683Z,97.47
2017-02-10T00:03:32.628Z,97.19
2017-02-10T00:04:00.733Z,97.09
2017-02-10T00:04:28.801Z,97.09
2017-02-10T00:04:56.963Z,97.09
2017-02-10T00:05:24.943Z,97.67
2017-02-10T00:05:53.188Z,97.09
2017-02-10T00:06:21.133Z,97.96
2017-02-10T00:06:49.409Z,98.05
2017-02-10T00:07:17.473Z,97.38
2017-02-10T00:07:45.731Z,97.57
2017-02-10T00:08:13.742Z,98.05
2017-02-10T00:08:41.731Z,98.05
2017-02-10T00:09:09.722Z,97.81
2017-02-10T00:09:37.948Z,97.96
2017-02-10T00:10:06.146Z,97.81
2017-02-10T00:10:34.269Z,98.24
2017-02-10T00:11:02.292Z,98.24
2017-02-10T00:11:30.315Z,98.05
2017-02-10T00:11:58.357Z,97.81
2017-02-10T00:12:26.504Z,98.05
2017-02-10T00:12:54.838Z,97.67
2017-02-10T00:13:22.898Z,98
2017-02-10T00:13:50.992Z,97.81
2017-02-10T00:14:19.068Z,97.86
2017-02-10T00:14:47.097Z,97.96
2017-02-10T00:15:15.220Z,97.91
2017-02-10T00:15:43.254Z,97.76
2017-02-10T00:16:11.471Z,97.91
2017-02-10T00:16:39.589Z,97.71
2017-02-10T00:17:07.644Z,97.91
2017-02-10T00:17:35.912Z,98
2017-02-10T00:18:04.168Z,98
2017-02-10T00:18:32.185Z,97.81
2017-02-10T00:19:00.293Z,97.91
2017-02-10T00:19:28.488Z,98
2017-02-10T00:19:56.506Z,98.1
2017-02-10T00:20:24.714Z,98.19
2017-02-10T00:20:52.927Z,98.39
2017-02-10T00:21:21.058Z,98.58
2017-02-10T00:21:49.135Z,98.1
2017-02-10T00:22:17.362Z,98.19
2017-02-10T00:22:45.394Z,98.1
2017-02-10T00:23:13.508Z,98.39
2017-02-10T00:23:41.864Z,98.19
2017-02-10T00:24:10.087Z,98.19
2017-02-10T00:24:38.265Z,98.19
2017-02-10T00:25:06.193Z,98.29
2017-02-10T00:25:34.176Z,98.87
2017-02-10T00:26:02.340Z,98.77
2017-02-10T00:26:30.566Z,98.58
2017-02-10T00:26:58.701Z,98.39
2017-02-10T00:27:26.820Z,98.68
2017-02-10T00:27:54.840Z,98.96
2017-02-10T00:28:22.988Z,99.06
2017-02-10T00:28:51.043Z,98.77
2017-02-10T00:29:19.032Z,98.68
2017-02-10T00:29:47.249Z,98.29
2017-02-10T00:30:15.225Z,98.58
2017-02-10T00:30:43.354Z,98.58
2017-02-10T00:31:11.490Z,98.96
2017-02-10T00:31:39.564Z,98.68
2017-02-10T00:32:07.704Z,98.49
2017-02-10T00:32:35.799Z,99.16
2017-02-10T00:33:03.969Z,98.39
2017-02-10T00:33:32.049Z,98.68
2017-02-10T00:34:00.127Z,98.77
2017-02-10T00:34:28.364Z,98.96
2017-02-10T00:34:56.374Z,98.68
2017-02-10T00:35:24.387Z,98.77
2017-02-10T00:35:52.515Z,99.06
2017-02-10T00:36:20.643Z,99.54
2017-02-10T00:36:48.650Z,99.73
2017-02-10T00:37:16.898Z,99.26
2017-02-10T00:37:44.687Z,99.35
2017-02-10T00:38:12.811Z,99.44
2017-02-10T00:38:41.000Z,99.54
2017-02-10T00:39:09.113Z,99.54
2017-02-10T00:39:37.399Z,99.26
2017-02-10T00:40:05.557Z,99.35
2017-02-10T00:40:33.784Z,99.83
2017-02-10T00:41:01.768Z,99.83
2017-02-10T00:41:29.939Z,99.83
2017-02-10T00:41:58.051Z,99.99
2017-02-10T00:42:26.125Z,99.99
2017-02-10T00:42:54.309Z,99.99
2017-02-10T00:43:22.420Z,99.93
2017-02-10T00:43:50.505Z,99.83
2017-02-10T00:44:18.692Z,99.83
2017-02-10T00:44:46.703Z,99.98
2017-02-10T00:45:14.864Z,99.99
2017-02-10T00:45:43.106Z,99.88
2017-02-10T00:46:11.163Z,99.98
2017-02-10T00:46:39.355Z,99.99
2017-02-10T00:47:07.584Z,99.78
2017-02-10T00:47:35.793Z,99.88
2017-02-10T00:48:03.801Z,99.99
2017-02-10T00:48:31.987Z,99.99
2017-02-10T00:49:00.160Z,99.93
2017-02-10T00:49:28.288Z,99.99
2017-02-10T00:49:56.487Z,99.99
2017-02-10T00:50:24.580Z,99.99
2017-02-10T00:50:52.715Z,99.93
2017-02-10T00:51:20.850Z,99.99
2017-02-10T00:51:48.906Z,99.99
2017-02-10T00:52:17.018Z,99.99
2017-02-10T00:52:45.057Z,99.99
2017-02-10T00:53:13.337Z,99.64
2017-02-10T00:53:41.280Z,99.93
2017-02-10T00:54:09.492Z,99.99
2017-02-10T00:54:37.531Z,99.99
2017-02-10T00:55:05.546Z,99.99
2017-02-10T00:55:33.675Z,99.99
2017-02-10T00:56:01.666Z,99.99
2017-02-10T00:56:29.826Z,99.99
2017-02-10T00:56:57.825Z,99.99
2017-02-10T00:57:25.946Z,99.99
2017-02-10T00:57:54.155Z,99.99
2017-02-10T00:58:22.476Z,99.99
2017-02-10T00:58:50.690Z,99.99
2017-02-10T00:59:18.668Z,99.99
2017-02-10T00:59:46.841Z,99.99
2017-02-10T01:00:15.006Z,99.99
2017-02-10T01:00:43.239Z,99.99
2017-02-10T01:01:11.439Z,99.99
2017-02-10T01:01:39.670Z,99.99
2017-02-10T01:02:07.876Z,99.99
2017-02-10T01:02:36.005Z,99.99
2017-02-10T01:03:03.981Z,99.99
2017-02-10T01:03:32.063Z,99.99
2017-02-10T01:04:00.140Z,99.99
2017-02-10T01:04:28.267Z,99.99
2017-02-10T01:04:56.409Z,99.99
2017-02-10T01:05:24.642Z,99.99
2017-02-10T01:05:52.766Z,99.99
2017-02-10T01:06:20.764Z,99.99
2017-02-10T01:06:48.874Z,99.99
2017-02-10T01:07:17.085Z,99.99
2017-02-10T01:07:45.281Z,99.99
2017-02-10T01:08:13.390Z,99.99
2017-02-10T01:08:41.608Z,99.99
2017-02-10T01:09:09.823Z,99.99
2017-02-10T01:09:37.922Z,99.99
2017-02-10T01:10:06.108Z,99.99
2017-02-10T01:10:34.295Z,99.99
2017-02-10T01:11:02.377Z,99.99
2017-02-10T01:11:30.404Z,99.99
2017-02-10T01:11:58.429Z,99.99
2017-02-10T01:12:26.603Z,99.99
2017-02-10T01:12:54.650Z,99.99
2017-02-10T01:13:22.807Z,99.99
2017-02-10T01:13:50.915Z,99.99
2017-02-10T01:14:19.132Z,99.99
2017-02-10T01:14:47.254Z,99.99
2017-02-10T01:15:15.378Z,99.99
2017-02-10T01:15:43.516Z,99.99
2017-02-10T01:16:11.655Z,99.99
2017-02-10T01:16:39.728Z,99.99
2017-02-10T01:17:07.893Z,99.99
2017-02-10T01:17:36.106Z,99.99
2017-02-10T01:18:04.281Z,99.99
2017-02-10T01:18:32.609Z,99.99
2017-02-10T01:19:00.703Z,99.93
2017-02-10T01:19:28.871Z,99.99
2017-02-10T01:19:56.671Z,99.99
2017-02-10T01:20:24.769Z,99.99
2017-02-10T01:20:53.000Z,99.99
2017-02-10T01:21:21.056Z,99.99
2017-02-10T01:21:49.161Z,99.99
2017-02-10T01:22:17.291Z,99.99
2017-02-10T01:22:45.297Z,99.99
2017-02-10T01:23:13.460Z,99.99
2017-02-10T01:23:41.710Z,99.99
2017-02-10T01:24:09.726Z,99.99
2017-02-10T01:24:37.792Z,99.99
2017-02-10T01:25:05.727Z,99.99
2017-02-10T01:25:33.916Z,99.99
2017-02-10T01:26:02.010Z,99.99
2017-02-10T01:26:30.161Z,99.99
2017-02-10T01:26:58.179Z,99.99
2017-02-10T01:27:26.355Z,99.99
2017-02-10T01:27:54.547Z,99.99
2017-02-10T01:28:22.682Z,99.99
2017-02-10T01:28:50.897Z,99.83
2017-02-10T01:29:19.033Z,99.93
2017-02-10T01:29:47.002Z,99.99
2017-02-10T01:30:15.058Z,99.99
2017-02-10T01:30:43.055Z,99.99
2017-02-10T01:31:11.167Z,99.99
2017-02-10T01:31:39.404Z,99.99
2017-02-10T01:32:07.547Z,99.99
2017-02-10T01:32:35.772Z,99.99
2017-02-10T01:33:03.805Z,99.99
2017-02-10T01:33:32.180Z,99.99
2017-02-10T01:34:00.169Z,99.99
2017-02-10T01:34:28.219Z,99.99
2017-02-10T01:34:56.348Z,99.99
2017-02-10T01:35:24.448Z,99.99
2017-02-10T01:35:52.343Z,99.99
2017-02-10T01:36:20.547Z,99.99
2017-02-10T01:36:48.747Z,99.99
2017-02-10T01:37:16.838Z,99.99
2017-02-10T01:37:45.027Z,99.99
2017-02-10T01:38:13.027Z,99.99
2017-02-10T01:38:41.297Z,99.99
2017-02-10T01:39:09.355Z,99.99
2017-02-10T01:39:37.501Z,99.99
2017-02-10T01:40:05.567Z,99.99
2017-02-10T01:40:33.636Z,99.99
2017-02-10T01:41:01.648Z,99.99
2017-02-10T01:41:29.656Z,99.99
2017-02-10T01:41:57.824Z,99.99
2017-02-10T01:42:25.914Z,99.99
2017-02-10T01:42:54.063Z,99.99
2017-02-10T01:43:22.069Z,99.99
2017-02-10T01:43:50.273Z,99.99
2017-02-10T01:44:18.285Z,99.99
2017-02-10T01:44:46.465Z,99.99
2017-02-10T01:45:14.636Z,99.99
2017-02-10T01:45:42.853Z,99.99
2017-02-10T01:46:11.119Z,99.99
2017-02-10T01:46:39.228Z,99.99
2017-02-10T01:47:07.347Z,99.99
2017-02-10T01:47:35.570Z,99.99
2017-02-10T01:48:03.704Z,99.99
2017-02-10T01:48:31.926Z,99.99
2017-02-10T01:49:00.108Z,99.93
2017-02-10T01:49:28.234Z,99.99
2017-02-10T01:49:56.403Z,99.99
2017-02-10T01:50:24.427Z,99.99
2017-02-10T01:50:52.533Z,99.99
2017-02-10T01:51:20.443Z,99.99
2017-02-10T01:51:48.566Z,99.99
2017-02-10T01:52:16.682Z,99.99
2017-02-10T01:52:44.944Z,99.99
2017-02-10T01:53:13.068Z,99.99
2017-02-10T01:53:41.307Z,99.93
2017-02-10T01:54:09.262Z,99.99
2017-02-10T01:54:37.428Z,99.99
2017-02-10T01:55:05.487Z,99.99
2017-02-10T01:55:33.660Z,99.99
2017-02-10T01:56:01.742Z,99.99
2017-02-10T01:56:29.758Z,99.99
2017-02-10T01:56:57.819Z,99.99
2017-02-10T01:57:25.954Z,99.93
2017-02-10T01:57:54.083Z,99.99
2017-02-10T01:58:22.286Z,99.99
2017-02-10T01:58:50.513Z,99.99
2017-02-10T01:59:18.633Z,99.99
2017-02-10T01:59:46.685Z,99.99
2017-02-10T02:00:14.756Z,99.99
2017-02-10T02:00:42.854Z,99.99
2017-02-10T02:01:10.820Z,99.99
2017-02-10T02:01:38.840Z,99.99
2017-02-10T02:02:06.872Z,99.69
2017-02-10T02:02:34.975Z,99.93
2017-02-10T02:03:03.243Z,99.83
2017-02-10T02:03:31.156Z,99.99
2017-02-10T02:03:59.354Z,99.88
2017-02-10T02:04:27.536Z,99.78
2017-02-10T02:04:55.614Z,99.78
2017-02-10T02:05:23.574Z,99.49
2017-02-10T02:05:51.727Z,99.88
2017-02-10T02:06:19.693Z,99.11
2017-02-10T02:06:47.824Z,99.69
2017-02-10T02:07:15.751Z,99.4
2017-02-10T02:07:43.847Z,99.59
2017-02-10T02:08:11.937Z,99.49
2017-02-10T02:08:40.031Z,99.49
2017-02-10T02:09:08.154Z,98.92
2017-02-10T02:09:36.322Z,99.01
2017-02-10T02:10:04.444Z,99.01
2017-02-10T02:10:32.444Z,99.01
2017-02-10T02:11:00.551Z,99.01
2017-02-10T02:11:28.546Z,99.11
2017-02-10T02:11:56.587Z,99.01
2017-02-10T02:12:24.453Z,98.82
2017-02-10T02:12:52.562Z,98.82
2017-02-10T02:13:20.627Z,98.54
2017-02-10T02:13:48.676Z,98.54
2017-02-10T02:14:16.824Z,98.72
2017-02-10T02:14:44.793Z,98.63
2017-02-10T02:15:12.844Z,98.63
2017-02-10T02:15:40.996Z,98.72
2017-02-10T02:16:09.094Z,98.72
2017-02-10T02:16:37.096Z,98.72
2017-02-10T02:17:05.129Z,98.72
2017-02-10T02:17:33.135Z,98.72
2017-02-10T02:18:01.118Z,98.82
2017-02-10T02:18:29.130Z,99.11
2017-02-10T02:18:57.456Z,98.34
2017-02-10T02:19:25.479Z,98.63
2017-02-10T02:19:53.471Z,98.34
2017-02-10T02:20:21.574Z,98.54
2017-02-10T02:20:49.656Z,98.34
2017-02-10T02:21:17.853Z,98.24
2017-02-10T02:21:45.970Z,98.44
2017-02-10T02:22:14.031Z,98.44
2017-02-10T02:22:42.092Z,98.05
2017-02-10T02:23:10.154Z,98.05
2017-02-10T02:23:38.221Z,97.96
2017-02-10T02:24:06.512Z,97.86
2017-02-10T02:24:34.701Z,97.76
2017-02-10T02:25:02.722Z,98.05
2017-02-10T02:25:30.832Z,97.96
2017-02-10T02:25:58.943Z,98.05
2017-02-10T02:26:26.881Z,98.14
2017-02-10T02:26:54.976Z,98.14
2017-02-10T02:27:22.985Z,97.86
2017-02-10T02:27:51.112Z,98.05
2017-02-10T02:28:19.316Z,97.76
2017-02-10T02:28:47.419Z,97.38
2017-02-10T02:29:15.702Z,97.76
2017-02-10T02:29:43.820Z,97.96
2017-02-10T02:30:11.876Z,97.57
2017-02-10T02:30:39.923Z,97.57
2017-02-10T02:31:07.944Z,97.28
2017-02-10T02:31:35.797Z,97.28
2017-02-10T02:32:04.036Z,97.57
2017-02-10T02:32:32.244Z,97.28
2017-02-10T02:33:00.379Z,97.76
2017-02-10T02:33:28.488Z,97.47
2017-02-10T02:33:56.532Z,97.38
2017-02-10T02:34:24.803Z,97.57
2017-02-10T02:34:52.864Z,97.47
2017-02-10T02:35:21.006Z,97.47
2017-02-10T02:35:49.190Z,97.47
2017-02-10T02:36:17.326Z,97.47
2017-02-10T02:36:45.381Z,97.47
2017-02-10T02:37:13.615Z,97.19
2017-02-10T02:37:41.789Z,97.47
2017-02-10T02:38:09.910Z,97.38
2017-02-10T02:38:38.062Z,97.47
2017-02-10T02:39:06.288Z,97.47
2017-02-10T02:39:34.496Z,97.38
2017-02-10T02:40:02.531Z,97.38
2017-02-10T02:40:30.544Z,96.7
2017-02-10T02:40:58.805Z,96.99
2017-02-10T02:41:26.991Z,97.28
2017-02-10T02:41:55.146Z,97.28
2017-02-10T02:42:23.271Z,97.19
2017-02-10T02:42:51.307Z,97.19
2017-02-10T02:43:19.383Z,97.09
2017-02-10T02:43:47.584Z,97.09
2017-02-10T02:44:16.040Z,97.19
2017-02-10T02:44:44.045Z,97.28
2017-02-10T02:45:12.147Z,97.09
2017-02-10T02:45:40.257Z,97.09
2017-02-10T02:46:08.425Z,97.47
2017-02-10T02:46:36.581Z,97.19
2017-02-10T02:47:04.705Z,97.47
2017-02-10T02:47:32.931Z,97.67
2017-02-10T02:48:01.033Z,97.28
2017-02-10T02:48:29.245Z,97.38
2017-02-10T02:48:57.321Z,97.19
2017-02-10T02:49:25.678Z,97.09
2017-02-10T02:49:53.817Z,97.09
2017-02-10T02:50:21.819Z,97.19
2017-02-10T02:50:49.904Z,97.09
2017-02-10T02:51:18.104Z,97.09
2017-02-10T02:51:46.258Z,97.09
2017-02-10T02:52:14.295Z,97.57
2017-02-10T02:52:42.398Z,97.19
2017-02-10T02:53:10.439Z,97.19
2017-02-10T02:53:38.471Z,97.19
2017-02-10T02:54:06.665Z,97.19
2017-02-10T02:54:34.892Z,97.28
2017-02-10T02:55:02.967Z,97.47
2017-02-10T02:55:31.000Z,97.57
2017-02-10T02:55:59.010Z,97.38
2017-02-10T02:56:27.230Z,97.38
2017-02-10T02:56:55.414Z,97.57
2017-02-10T02:57:23.467Z,97.19
2017-02-10T02:57:51.620Z,97.47
2017-02-10T02:58:19.791Z,97.47
2017-02-10T02:58:47.855Z,97.28
2017-02-10T02:59:15.971Z,97.24
2017-02-10T02:59:44.009Z,97.76
2017-02-10T03:00:12.064Z,97.38
2017-02-10T03:00:40.238Z,97.38
2017-02-10T03:01:08.225Z,97.19
2017-02-10T03:01:36.367Z,97.28
2017-02-10T03:02:04.470Z,97.47
2017-02-10T03:02:32.482Z,97.76
2017-02-10T03:03:00.633Z,97.96
2017-02-10T03:03:28.678Z,97.38
2017-02-10T03:03:56.779Z,97.38
2017-02-10T03:04:25.087Z,97.57
2017-02-10T03:04:53.187Z,98.14
2017-02-10T03:05:21.219Z,97.86
2017-02-10T03:05:49.220Z,97.57
2017-02-10T03:06:17.196Z,98.05
2017-02-10T03:06:45.312Z,98.05
2017-02-10T03:07:13.434Z,97.86
2017-02-10T03:07:41.320Z,97.96
2017-02-10T03:08:09.475Z,98.24
2017-02-10T03:08:37.730Z,98.05
2017-02-10T03:09:05.876Z,98.05
2017-02-10T03:09:34.145Z,97.86
2017-02-10T03:10:02.367Z,97.76
2017-02-10T03:10:30.369Z,97.86
2017-02-10T03:10:58.311Z,97.67
2017-02-10T03:11:26.487Z,98.05
2017-02-10T03:11:54.592Z,98.14
2017-02-10T03:12:22.667Z,98.05
2017-02-10T03:12:50.784Z,97.96
2017-02-10T03:13:18.727Z,97.57
2017-02-10T03:13:46.742Z,97.86
2017-02-10T03:14:14.862Z,97.86
2017-02-10T03:14:43.276Z,98.05
2017-02-10T03:15:11.293Z,97.76
2017-02-10T03:15:39.453Z,97.76
2017-02-10T03:16:07.589Z,98.05
2017-02-10T03:16:35.675Z,98.14
2017-02-10T03:17:03.771Z,98.24
2017-02-10T03:17:31.876Z,97.76
2017-02-10T03:18:00.061Z,98.05
2017-02-10T03:18:27.920Z,97.76
2017-02-10T03:18:55.997Z,97.96
2017-02-10T03:19:24.203Z,97.96
2017-02-10T03:19:52.447Z,97.76
2017-02-10T03:20:20.576Z,97.96
2017-02-10T03:20:48.770Z,97.76
2017-02-10T03:21:17.015Z,97.86
2017-02-10T03:21:45.116Z,97.96
2017-02-10T03:22:13.028Z,97.67
2017-02-10T03:22:41.120Z,97.76
2017-02-10T03:23:09.369Z,97.76
2017-02-10T03:23:37.568Z,97.86
2017-02-10T03:24:05.795Z,97.96
2017-02-10T03:24:34.134Z,98.05
2017-02-10T03:25:02.146Z,97.96
2017-02-10T03:25:30.212Z,97.96
2017-02-10T03:25:58.349Z,98.14
2017-02-10T03:26:26.494Z,97.76
2017-02-10T03:26:54.474Z,97.76
2017-02-10T03:27:22.728Z,98.14
2017-02-10T03:27:50.856Z,98.14
2017-02-10T03:28:18.977Z,97.76
2017-02-10T03:28:47.196Z,97.67
2017-02-10T03:29:15.261Z,97.96
2017-02-10T03:29:43.463Z,97.86
2017-02-10T03:30:11.391Z,97.96
2017-02-10T03:30:39.619Z,98.24
2017-02-10T03:31:07.816Z,98.05
2017-02-10T03:31:35.903Z,97.96
2017-02-10T03:32:03.927Z,97.76
2017-02-10T03:32:32.078Z,97.86
2017-02-10T03:33:00.168Z,98.14
2017-02-10T03:33:28.177Z,98.05
2017-02-10T03:33:56.299Z,97.91
2017-02-10T03:34:24.389Z,98.24
2017-02-10T03:34:52.685Z,98.77
2017-02-10T03:35:20.690Z,98.96
2017-02-10T03:35:48.816Z,98.77
2017-02-10T03:36:16.998Z,99.44
2017-02-10T03:36:45.188Z,99.44
2017-02-10T03:37:13.273Z,99.35
2017-02-10T03:37:41.443Z,99.54
2017-02-10T03:38:09.475Z,99.16
2017-02-10T03:38:37.580Z,99.54
2017-02-10T03:39:05.703Z,99.35
2017-02-10T03:39:33.765Z,99.93
2017-02-10T03:40:01.975Z,99.64
2017-02-10T03:40:30.128Z,99.99
2017-02-10T03:40:58.346Z,99.44
2017-02-10T03:41:26.446Z,99.73
2017-02-10T03:41:54.655Z,99.54
2017-02-10T03:42:22.797Z,99.35
2017-02-10T03:42:50.973Z,99.73
2017-02-10T03:43:19.171Z,99.93
2017-02-10T03:43:47.414Z,99.83
2017-02-10T03:44:15.437Z,99.83
2017-02-10T03:44:43.550Z,99.93
2017-02-10T03:45:11.617Z,99.93
2017-02-10T03:45:39.838Z,99.99
2017-02-10T03:46:07.929Z,99.99
2017-02-10T03:46:36.062Z,99.99
2017-02-10T03:47:04.081Z,99.99
2017-02-10T03:47:32.180Z,99.64
2017-02-10T03:48:00.570Z,99.93
2017-02-10T03:48:28.757Z,99.73
2017-02-10T03:48:57.024Z,99.93
2017-02-10T03:49:25.151Z,99.93
2017-02-10T03:49:53.269Z,99.64
2017-02-10T03:50:21.332Z,99.44
2017-02-10T03:50:49.569Z,99.35
2017-02-10T03:51:17.767Z,99.44
2017-02-10T03:51:45.884Z,99.93
2017-02-10T03:52:14.049Z,99.73
2017-02-10T03:52:42.191Z,99.73
2017-02-10T03:53:10.091Z,99.64
2017-02-10T03:53:38.180Z,99.73
2017-02-10T03:54:06.376Z,99.35
2017-02-10T03:54:34.534Z,99.16
2017-02-10T03:55:02.658Z,99.44
2017-02-10T03:55:30.675Z,99.44
2017-02-10T03:55:58.890Z,99.35
2017-02-10T03:56:27.322Z,99.35
2017-02-10T03:56:55.470Z,99.83
2017-02-10T03:57:23.646Z,99.54
2017-02-10T03:57:51.745Z,99.26
2017-02-10T03:58:20.130Z,99.44
2017-02-10T03:58:48.376Z,99.44
2017-02-10T03:59:16.398Z,99.35
2017-02-10T03:59:44.571Z,99.26
2017-02-10T04:00:12.626Z,99.35
2017-02-10T04:00:40.494Z,99.35
2017-02-10T04:01:08.713Z,99.35
2017-02-10T04:01:36.787Z,99.64
2017-02-10T04:02:04.945Z,99.64
2017-02-10T04:02:32.961Z,99.26
2017-02-10T04:03:01.102Z,99.35
2017-02-10T04:03:29.254Z,99.64
2017-02-10T04:03:57.429Z,99.54
2017-02-10T04:04:25.560Z,98.77
2017-02-10T04:04:53.778Z,99.26
2017-02-10T04:05:21.993Z,99.44
2017-02-10T04:05:49.969Z,99.35
2017-02-10T04:06:18.176Z,99.54
2017-02-10T04:06:46.373Z,99.54
2017-02-10T04:07:14.373Z,99.64
2017-02-10T04:07:42.792Z,99.44
2017-02-10T04:08:10.815Z,99.64
2017-02-10T04:08:39.016Z,99.64
2017-02-10T04:09:07.147Z,99.35
2017-02-10T04:09:35.203Z,99.16
2017-02-10T04:10:03.390Z,99.35
2017-02-10T04:10:31.379Z,99.35
2017-02-10T04:10:59.575Z,99.44
2017-02-10T04:11:27.489Z,99.26
2017-02-10T04:11:55.575Z,99.26
2017-02-10T04:12:23.694Z,99.44
2017-02-10T04:12:51.841Z,98.77
2017-02-10T04:13:19.770Z,99.64
2017-02-10T04:13:47.853Z,99.64
2017-02-10T04:14:15.878Z,99.83
2017-02-10T04:14:44.065Z,99.26
2017-02-10T04:15:12.213Z,99.54
2017-02-10T04:15:40.427Z,99.26
2017-02-10T04:16:08.909Z,99.35
2017-02-10T04:16:36.996Z,99.54
2017-02-10T04:17:05.113Z,99.54
2017-02-10T04:17:33.156Z,99.54
2017-02-10T04:18:01.168Z,99.26
2017-02-10T04:18:29.165Z,99.44
2017-02-10T04:18:57.193Z,99.35
2017-02-10T04:19:25.404Z,99.44
2017-02-10T04:19:53.440Z,99.73
2017-02-10T04:20:21.992Z,99.35
2017-02-10T04:20:50.181Z,99.44
2017-02-10T04:21:18.241Z,99.44
2017-02-10T04:21:46.342Z,99.73
2017-02-10T04:22:14.523Z,99.73
2017-02-10T04:22:42.514Z,99.83
2017-02-10T04:23:10.635Z,99.93
2017-02-10T04:23:38.682Z,99.99
2017-02-10T04:24:06.844Z,99.93
2017-02-10T04:24:34.952Z,99.99
2017-02-10T04:25:03.128Z,99.83
2017-02-10T04:25:31.487Z,99.83
2017-02-10T04:25:59.415Z,99.93
2017-02-10T04:26:27.640Z,99.99
2017-02-10T04:26:55.715Z,99.64
2017-02-10T04:27:23.910Z,99.99
2017-02-10T04:27:52.087Z,99.99
2017-02-10T04:28:20.222Z,99.99
2017-02-10T04:28:48.424Z,99.64
2017-02-10T04:29:16.464Z,99.73
2017-02-10T04:29:44.619Z,99.93
2017-02-10T04:30:12.829Z,99.93
2017-02-10T04:30:40.796Z,99.99
2017-02-10T04:31:08.976Z,99.83
2017-02-10T04:31:37.097Z,99.83
2017-02-10T04:32:05.378Z,99.83
2017-02-10T04:32:34.268Z,99.83
2017-02-10T04:33:02.281Z,99.83
2017-02-10T04:33:30.457Z,99.93
2017-02-10T04:33:58.897Z,99.64
2017-02-10T04:34:27.572Z,99.73
2017-02-10T04:34:55.504Z,99.73
2017-02-10T04:35:23.863Z,99.64
2017-02-10T04:35:51.959Z,99.99
2017-02-10T04:36:20.041Z,99.83
2017-02-10T04:36:48.184Z,99.83
2017-02-10T04:37:16.411Z,99.99
2017-02-10T04:37:44.644Z,99.54
2017-02-10T04:38:12.951Z,99.44
2017-02-10T04:38:41.168Z,99.54
2017-02-10T04:39:09.237Z,99.35
2017-02-10T04:39:37.447Z,99.64
2017-02-10T04:40:05.639Z,99.54
2017-02-10T04:40:33.813Z,99.35
2017-02-10T04:41:02.119Z,99.73
2017-02-10T04:41:30.209Z,99.35
2017-02-10T04:41:58.190Z,99.35
2017-02-10T04:42:26.339Z,99.64
2017-02-10T04:42:54.534Z,99.35
2017-02-10T04:43:22.769Z,99.44
2017-02-10T04:43:50.861Z,99.16
2017-02-10T04:44:19.075Z,99.35
2017-02-10T04:44:47.006Z,99.73
2017-02-10T04:45:15.000Z,99.44
2017-02-10T04:45:43.335Z,99.64
2017-02-10T04:46:11.355Z,99.35
2017-02-10T04:46:39.437Z,99.64
2017-02-10T04:47:07.551Z,99.73
2017-02-10T04:47:35.803Z,99.26
2017-02-10T04:48:03.750Z,99.54
2017-02-10T04:48:31.754Z,99.26
2017-02-10T04:48:59.930Z,99.44
2017-02-10T04:49:28.154Z,99.16
2017-02-10T04:49:56.269Z,99.54
2017-02-10T04:50:24.481Z,99.35
2017-02-10T04:50:52.722Z,99.26
2017-02-10T04:51:20.854Z,99.54
2017-02-10T04:51:48.877Z,99.44
2017-02-10T04:52:16.961Z,99.35
2017-02-10T04:52:45.076Z,99.06
2017-02-10T04:53:13.285Z,98.87
2017-02-10T04:53:41.406Z,98.68
2017-02-10T04:54:09.427Z,98.87
2017-02-10T04:54:37.693Z,98.68
2017-02-10T04:55:05.913Z,98.58
2017-02-10T04:55:34.190Z,98.68
2017-02-10T04:56:02.273Z,98.77
2017-02-10T04:56:30.308Z,98.77
2017-02-10T04:56:58.401Z,98.77
2017-02-10T04:57:26.545Z,98.87
2017-02-10T04:57:54.674Z,98.19
2017-02-10T04:58:22.701Z,98.58
2017-02-10T04:58:50.888Z,98.29
2017-02-10T04:59:19.048Z,98.39
2017-02-10T04:59:46.972Z,98.39
2017-02-10T05:00:14.913Z,98.19
2017-02-10T05:00:42.973Z,98.19
2017-02-10T05:01:11.063Z,98.39
2017-02-10T05:01:39.232Z,98.19
2017-02-10T05:02:07.430Z,98.39
2017-02-10T05:02:35.394Z,98.29
2017-02-10T05:03:03.462Z,98.29
2017-02-10T05:03:31.597Z,98
2017-02-10T05:03:59.515Z,97.91
2017-02-10T05:04:27.681Z,97.91
2017-02-10T05:04:55.613Z,98.49
2017-02-10T05:05:23.666Z,97.91
2017-02-10T05:05:51.707Z,98
2017-02-10T05:06:19.799Z,98
2017-02-10T05:06:47.913Z,97.62
2017-02-10T05:07:15.845Z,98.29
2017-02-10T05:07:43.907Z,98.39
2017-02-10T05:08:12.023Z,98.29
2017-02-10T05:08:40.096Z,98.39
2017-02-10T05:09:08.198Z,98.39
2017-02-10T05:09:36.267Z,98.39
2017-02-10T05:10:04.274Z,98.29
2017-02-10T05:10:32.382Z,98.49
2017-02-10T05:11:00.678Z,98.39
2017-02-10T05:11:28.786Z,98.44
2017-02-10T05:11:56.818Z,98.49
2017-02-10T05:12:24.749Z,98.39
2017-02-10T05:12:52.867Z,98.29
2017-02-10T05:13:20.985Z,98
2017-02-10T05:13:48.859Z,98.29
2017-02-10T05:14:16.975Z,98.29
2017-02-10T05:14:45.203Z,98.29
2017-02-10T05:15:13.442Z,97.62
2017-02-10T05:15:41.698Z,97.81
2017-02-10T05:16:09.914Z,97.91
2017-02-10T05:16:38.007Z,97.96
2017-02-10T05:17:06.118Z,97.76
2017-02-10T05:17:34.321Z,98.05
2017-02-10T05:18:02.550Z,97.76
2017-02-10T05:18:30.747Z,97.91
2017-02-10T05:18:58.744Z,97.52
2017-02-10T05:19:26.861Z,98.24
2017-02-10T05:19:55.095Z,97.96
2017-02-10T05:20:23.152Z,98.19
2017-02-10T05:20:51.161Z,98.19
2017-02-10T05:21:19.288Z,98.19
2017-02-10T05:21:47.459Z,98.05
2017-02-10T05:22:15.775Z,98.19
2017-02-10T05:22:43.703Z,97.42
2017-02-10T05:23:11.484Z,97.91
2017-02-10T05:23:39.573Z,98.1
2017-02-10T05:24:07.583Z,98
2017-02-10T05:24:35.701Z,97.91
2017-02-10T05:25:03.857Z,97.91
2017-02-10T05:25:31.932Z,97.91
2017-02-10T05:26:00.022Z,97.91
2017-02-10T05:26:28.167Z,97.91
2017-02-10T05:26:56.370Z,97.91
2017-02-10T05:27:24.587Z,97.91
2017-02-10T05:27:52.786Z,98
2017-02-10T05:28:21.032Z,98.1
2017-02-10T05:28:49.136Z,97.91
2017-02-10T05:29:17.270Z,97.91
2017-02-10T05:29:45.393Z,98
2017-02-10T05:30:13.642Z,98
2017-02-10T05:30:41.763Z,97.71
2017-02-10T05:31:09.837Z,97.71
2017-02-10T05:31:38.099Z,97.81
2017-02-10T05:32:06.400Z,97.71
2017-02-10T05:32:34.622Z,97.71
2017-02-10T05:33:02.786Z,98.39
2017-02-10T05:33:30.891Z,98.39
2017-02-10T05:33:59.107Z,98.29
2017-02-10T05:34:27.182Z,98.39
2017-02-10T05:34:55.359Z,98.49
2017-02-10T05:35:23.399Z,98.49
2017-02-10T05:35:51.521Z,98.29
2017-02-10T05:36:19.569Z,98.29
2017-02-10T05:36:47.640Z,98.39
2017-02-10T05:37:15.785Z,98.29
2017-02-10T05:37:44.005Z,98.39
2017-02-10T05:38:12.049Z,98.29
2017-02-10T05:38:40.168Z,98.39
2017-02-10T05:39:08.161Z,98.29
2017-02-10T05:39:36.347Z,98.58
2017-02-10T05:40:04.497Z,98.39
2017-02-10T05:40:32.612Z,98.29
2017-02-10T05:41:00.793Z,98.58
2017-02-10T05:41:28.912Z,98.19
2017-02-10T05:41:56.961Z,98.19
2017-02-10T05:42:25.049Z,98.19
2017-02-10T05:42:53.177Z,98.39
2017-02-10T05:43:21.280Z,98.96
2017-02-10T05:43:49.477Z,98.68
2017-02-10T05:44:17.721Z,98.77
2017-02-10T05:44:45.649Z,98.77
2017-02-10T05:45:13.918Z,98.68
2017-02-10T05:45:42.001Z,98.58
2017-02-10T05:46:10.289Z,98.77
2017-02-10T05:46:38.309Z,99.16
2017-02-10T05:47:06.264Z,98.87
2017-02-10T05:47:34.391Z,99.16
2017-02-10T05:48:02.583Z,98.87
2017-02-10T05:48:30.802Z,98.87
2017-02-10T05:48:58.932Z,98.87
2017-02-10T05:49:27.081Z,98.77
2017-02-10T05:49:55.263Z,99.64
2017-02-10T05:50:23.263Z,99.44
2017-02-10T05:50:51.496Z,99.06
2017-02-10T05:51:19.735Z,99.06
2017-02-10T05:51:47.858Z,99.06
2017-02-10T05:52:16.033Z,99.06
2017-02-10T05:52:44.197Z,99.26
2017-02-10T05:53:12.183Z,98.87
2017-02-10T05:53:40.251Z,98.96
2017-02-10T05:54:08.357Z,98.96
2017-02-10T05:54:36.384Z,99.16
2017-02-10T05:55:04.395Z,98.77
2017-02-10T05:55:32.526Z,99.16
2017-02-10T05:56:00.664Z,98.77
2017-02-10T05:56:29.004Z,98.39
2017-02-10T05:56:57.043Z,98.58
2017-02-10T05:57:25.146Z,98.87
2017-02-10T05:57:53.057Z,98.68
2017-02-10T05:58:21.123Z,98.58
2017-02-10T05:58:49.325Z,98.58
2017-02-10T05:59:17.482Z,98.68
2017-02-10T05:59:45.487Z,98.68
2017-02-10T06:00:13.460Z,98.58
2017-02-10T06:00:41.508Z,98.58
2017-02-10T06:01:09.617Z,98.68
2017-02-10T06:01:37.674Z,98.58
2017-02-10T06:02:05.878Z,98.68
2017-02-10T06:02:33.888Z,98.68
2017-02-10T06:03:02.076Z,98.68